Time;durP1;ratioP1;P1;durP2;ratioP2;P2;SDS_P1;SDS_P2;PMS_P1;PMS_P2;Temp;Humidity;BMP_temperature;BMP_pressure;BME280_temperature;BME280_humidity;BME280_pressure;Samples;Min_cycle;Max_cycle;Signal;HPM_P1;HPM_P2
2022/03/27 00:01:49;;;;;;;8.40;3.00;;;;;;;0.14;54.14;100869.91;432127;1270;317580;-67
2022/03/27 00:11:56;;;;;;;7.00;2.90;;;;;;;-0.08;54.85;100878.34;432311;1270;141386;-69
2022/03/27 00:22:03;;;;;;;9.20;3.70;;;;;;;-0.52;55.39;100885.34;430489;1270;141202;-67
2022/03/27 00:32:11;;;;;;;14.40;3.50;;;;;;;-0.87;55.99;100900.70;431641;1269;142182;-66
2022/03/27 00:42:19;;;;;;;6.90;3.50;;;;;;;-1.16;56.78;100907.26;431955;1270;141640;-69
2022/03/27 00:52:25;;;;;;;8.70;4.60;;;;;;;-1.41;57.27;100907.63;431229;1270;140745;-67
2022/03/27 01:02:30;;;;;;;9.20;4.30;;;;;;;-1.67;57.88;100910.03;431820;1270;143300;-65
2022/03/27 01:12:41;;;;;;;11.00;5.00;;;;;;;-1.93;58.49;100912.91;430940;1270;142273;-65
2022/03/27 01:22:47;;;;;;;5.90;3.70;;;;;;;-2.19;58.82;100914.55;430781;1270;141745;-65
2022/03/27 01:32:54;;;;;;;7.20;3.30;;;;;;;-2.38;59.49;100915.55;432348;1269;141463;-65
2022/03/27 01:43:00;;;;;;;14.40;6.90;;;;;;;-2.58;59.80;100920.65;431913;1269;141896;-65
2022/03/27 01:53:06;;;;;;;13.20;6.20;;;;;;;-2.72;60.30;100926.84;431097;1270;143293;-68
2022/03/27 02:03:12;;;;;;;10.60;5.50;;;;;;;-2.83;60.82;100937.69;431572;1270;142299;-66
2022/03/27 02:13:19;;;;;;;;;;;;;;;-2.93;61.18;100934.98;432592;1270;142847;-66
2022/03/27 02:23:26;;;;;;;11.90;7.10;;;;;;;-3.03;61.60;100940.84;431228;1270;128370;-66
2022/03/27 02:33:32;;;;;;;12.90;6.50;;;;;;;-3.13;61.94;100943.78;431869;1270;142309;-66
2022/03/27 02:43:38;;;;;;;15.20;7.70;;;;;;;-3.17;62.15;100953.50;432072;1270;142170;-66
2022/03/27 02:53:44;;;;;;;17.30;8.70;;;;;;;-3.18;62.39;100967.01;431215;1270;147683;-65
2022/03/27 03:03:50;;;;;;;16.40;7.70;;;;;;;-3.23;62.52;100978.42;431049;1270;141441;-67
2022/03/27 03:13:57;;;;;;;12.70;7.10;;;;;;;-3.32;62.80;100986.17;432475;1270;142235;-66
2022/03/27 03:24:25;;;;;;;19.10;8.40;;;;;;;-3.42;63.01;100989.94;430916;1270;142536;-66
2022/03/27 03:34:31;;;;;;;13.50;8.50;;;;;;;-3.53;63.26;100993.54;433062;1270;142065;-66
2022/03/27 03:44:37;;;;;;;13.40;8.10;;;;;;;-3.62;63.37;101001.78;432767;1270;146093;-68
2022/03/27 03:54:44;;;;;;;18.10;8.30;;;;;;;-3.73;63.64;101007.40;431578;1270;142909;-67
2022/03/27 04:04:50;;;;;;;12.10;7.40;;;;;;;-3.78;63.99;101017.59;432830;1270;142146;-66
2022/03/27 04:14:55;;;;;;;16.40;10.00;;;;;;;-3.83;64.29;101029.83;431220;1269;143713;-65
2022/03/27 04:25:02;;;;;;;13.70;8.50;;;;;;;-3.84;64.66;101034.60;446135;1267;145139;-66
2022/03/27 04:35:08;;;;;;;;;;;;;;;-3.83;64.69;101041.98;447616;1268;142257;-66
2022/03/27 04:45:14;;;;;;;16.10;8.90;;;;;;;-3.69;64.83;101044.96;447799;1270;128605;-66
2022/03/27 04:55:20;;;;;;;18.40;8.80;;;;;;;-3.34;64.72;101047.44;447062;1269;142284;-66
2022/03/27 05:05:25;;;;;;;16.60;8.80;;;;;;;-2.94;64.42;101058.17;447642;1269;143150;-66
2022/03/27 05:15:31;;;;;;;16.80;10.70;;;;;;;-2.48;64.20;101061.39;446784;1270;142369;-66
2022/03/27 05:25:41;;;;;;;21.10;9.80;;;;;;;-1.91;63.82;101068.08;447569;1269;143020;-67
2022/03/27 05:35:47;;;;;;;17.10;10.80;;;;;;;-0.18;62.75;101062.05;447614;1270;143016;-66
2022/03/27 05:45:53;;;;;;;20.00;11.80;;;;;;;5.40;58.83;101051.30;441163;1269;142525;-66
2022/03/27 05:56:00;;;;;;;16.60;11.10;;;;;;;11.29;52.01;101044.33;447631;1269;144209;-65
2022/03/27 06:06:05;;;;;;;14.40;10.10;;;;;;;17.59;45.17;101040.43;447543;1270;141488;-64
2022/03/27 06:16:11;;;;;;;16.40;11.20;;;;;;;21.59;37.94;101044.61;436839;1269;142162;-64
2022/03/27 06:26:17;;;;;;;10.80;8.20;;;;;;;25.77;34.04;101051.83;447700;1270;142766;-65
2022/03/27 06:36:23;;;;;;;8.50;6.30;;;;;;;30.19;29.61;101060.36;446761;1270;142313;-65
2022/03/27 06:46:29;;;;;;;7.40;6.40;;;;;;;33.15;24.98;101088.95;447416;1270;143247;-64
2022/03/27 06:56:36;;;;;;;8.60;5.80;;;;;;;34.80;21.78;101101.55;447440;1270;141397;-64
2022/03/27 07:06:43;;;;;;;6.40;4.40;;;;;;;34.29;19.12;101107.30;446715;1270;142166;-63
2022/03/27 07:16:48;;;;;;;3.20;2.20;;;;;;;32.72;18.02;101109.08;447519;1270;142318;-64
2022/03/27 07:26:54;;;;;;;3.00;1.80;;;;;;;31.80;16.83;101103.52;446834;1268;142609;-62
2022/03/27 07:37:00;;;;;;;2.60;1.20;;;;;;;33.37;15.93;101088.88;446565;1270;141989;-63
2022/03/27 07:47:07;;;;;;;2.10;1.80;;;;;;;33.44;14.45;101088.73;447343;1270;142451;-63
2022/03/27 07:57:13;;;;;;;1.80;1.50;;;;;;;34.48;13.90;101099.48;447551;1269;143075;-62
2022/03/27 08:07:19;;;;;;;2.50;2.10;;;;;;;35.07;12.98;101103.13;447606;1270;141548;-63
2022/03/27 08:17:25;;;;;;;1.70;1.20;;;;;;;35.49;12.41;101106.15;447684;1267;144850;-64
2022/03/27 08:27:33;;;;;;;2.60;1.70;;;;;;;35.36;11.90;101113.51;446795;1270;143390;-65
2022/03/27 08:37:40;;;;;;;3.70;1.80;;;;;;;35.33;11.28;101108.81;440124;1269;142475;-65
2022/03/27 08:47:47;;;;;;;2.70;0.90;;;;;;;35.66;10.89;101108.78;447475;1269;142293;-65
2022/03/27 08:57:56;;;;;;;1.40;1.00;;;;;;;33.91;10.75;101094.70;446640;1270;141885;-66
2022/03/27 09:08:07;;;;;;;2.20;1.00;;;;;;;22.69;12.57;101089.44;446781;1271;141254;-65
2022/03/27 09:18:15;;;;;;;1.10;0.70;;;;;;;17.54;14.98;101092.30;446828;1270;140883;-64
2022/03/27 09:28:29;;;;;;;2.40;0.90;;;;;;;15.25;16.58;101095.24;447169;1270;143779;-65
2022/03/27 09:38:36;;;;;;;1.80;0.90;;;;;;;13.90;17.72;101102.80;444382;1270;141709;-65
2022/03/27 09:48:57;;;;;;;2.70;1.20;;;;;;;12.65;18.59;101091.68;438312;1270;142379;-65
2022/03/27 09:59:03;;;;;;;1.50;0.90;;;;;;;11.55;19.77;101074.27;441856;1270;142082;-66
2022/03/27 10:09:10;;;;;;;3.20;1.40;;;;;;;10.61;20.96;101081.55;447242;1268;142515;-65
2022/03/27 10:19:26;;;;;;;3.20;1.40;;;;;;;10.23;21.55;101068.48;446602;1270;142238;-66
2022/03/27 10:29:33;;;;;;;3.10;1.10;;;;;;;10.14;21.95;101055.67;442709;1270;142602;-66
2022/03/27 10:39:56;;;;;;;3.40;1.00;;;;;;;9.78;22.64;101044.58;441896;1270;141437;-68
2022/03/27 10:50:23;;;;;;;3.00;0.90;;;;;;;9.49;22.89;101049.14;447231;1271;140798;-69
2022/03/27 11:00:41;;;;;;;2.50;1.60;;;;;;;9.50;23.10;101037.05;446483;1269;141699;-68
2022/03/27 11:10:50;;;;;;;2.30;1.40;;;;;;;9.75;23.70;101023.90;447410;1270;141687;-68
2022/03/27 11:20:57;;;;;;;;;;;;;;;9.74;23.87;101005.60;446442;1270;141297;-69
2022/03/27 11:31:20;;;;;;;3.30;0.90;;;;;;;9.70;24.24;100992.62;446300;1269;131016;-68
2022/03/27 11:41:29;;;;;;;1.90;0.90;;;;;;;9.65;24.47;100970.98;447406;1270;152062;-71
2022/03/27 11:51:34;;;;;;;2.40;1.30;;;;;;;9.39;24.79;100955.66;436073;1270;141746;-70
2022/03/27 12:01:41;;;;;;;3.90;1.60;;;;;;;9.25;25.24;100950.77;443851;1270;220338;-67
2022/03/27 12:11:47;;;;;;;3.40;0.90;;;;;;;9.38;25.59;100945.39;447260;1268;142255;-66
2022/03/27 12:21:53;;;;;;;3.90;1.70;;;;;;;9.44;25.39;100930.84;446086;1270;141750;-66
2022/03/27 12:32:01;;;;;;;1.40;0.90;;;;;;;9.36;25.80;100921.84;447337;1269;142180;-65
2022/03/27 12:42:07;;;;;;;3.50;1.10;;;;;;;9.41;26.27;100908.42;447465;1269;141866;-66
2022/03/27 12:52:15;;;;;;;1.70;0.60;;;;;;;9.69;26.34;100894.92;446484;1270;142497;-66
2022/03/27 13:02:30;;;;;;;2.30;0.90;;;;;;;9.80;26.07;100889.05;435093;1270;141351;-68
2022/03/27 13:12:37;;;;;;;2.50;1.00;;;;;;;9.63;26.30;100886.24;445548;1269;141474;-66
2022/03/27 13:22:43;;;;;;;5.40;1.20;;;;;;;9.64;26.32;100869.40;444174;1270;142156;-66
2022/03/27 13:32:49;;;;;;;2.10;1.00;;;;;;;9.77;26.73;100857.87;447309;1269;144329;-66
2022/03/27 13:43:02;;;;;;;2.20;0.70;;;;;;;9.76;26.88;100843.41;446627;1270;141504;-66
2022/03/27 13:53:08;;;;;;;3.20;1.00;;;;;;;9.76;26.87;100819.78;447436;1268;141340;-67
2022/03/27 14:03:15;;;;;;;3.30;1.30;;;;;;;9.81;27.18;100815.91;447642;1269;142204;-66
2022/03/27 14:13:21;;;;;;;2.10;0.90;;;;;;;9.95;27.15;100805.04;447671;1269;140866;-66
2022/03/27 14:23:27;;;;;;;1.20;0.70;;;;;;;9.99;27.17;100790.34;447789;1269;141742;-66
2022/03/27 14:33:33;;;;;;;2.50;0.80;;;;;;;10.01;27.27;100773.63;446545;1269;141710;-67
2022/03/27 14:43:39;;;;;;;2.50;1.20;;;;;;;10.03;27.28;100755.52;447693;1269;141999;-66
2022/03/27 15:04:08;;;;;;;9.70;2.00;;;;;;;10.38;27.31;100735.47;446652;1269;142618;-66
2022/03/27 15:14:34;;;;;;;1.40;1.10;;;;;;;10.61;27.25;100726.57;447640;1270;142165;-64
2022/03/27 15:24:40;;;;;;;4.50;1.50;;;;;;;10.70;27.37;100711.13;446618;1270;142209;-64
2022/03/27 15:34:46;;;;;;;2.20;1.10;;;;;;;10.55;27.58;100703.75;447353;1269;140878;-63
2022/03/27 15:44:52;;;;;;;4.10;2.00;;;;;;;10.43;27.96;100693.25;447751;1269;141310;-64
2022/03/27 15:54:58;;;;;;;2.50;1.50;;;;;;;10.31;28.09;100683.23;438484;1270;142767;-62
2022/03/27 16:05:05;;;;;;;2.50;0.90;;;;;;;10.09;28.38;100670.61;447827;1269;141869;-63
2022/03/27 16:15:12;;;;;;;6.40;1.50;;;;;;;9.87;28.45;100664.02;443360;1269;142381;-64
2022/03/27 16:25:18;;;;;;;4.00;1.00;;;;;;;9.72;28.64;100657.88;447035;1269;141532;-65
2022/03/27 16:35:24;;;;;;;3.20;1.40;;;;;;;9.42;29.17;100651.81;445664;1268;142763;-64
2022/03/27 16:45:29;;;;;;;2.20;0.90;;;;;;;8.92;29.11;100637.09;445457;1269;141348;-62
2022/03/27 16:55:36;;;;;;;15.70;2.80;;;;;;;8.42;29.79;100630.08;447683;1269;142453;-63
2022/03/27 17:05:42;;;;;;;6.20;3.00;;;;;;;7.91;30.62;100627.40;435856;1270;142160;-61
2022/03/27 17:15:51;;;;;;;17.30;11.70;;;;;;;7.45;31.65;100623.61;446848;1269;141941;-59
2022/03/27 17:25:57;;;;;;;8.10;5.00;;;;;;;7.00;32.84;100617.29;447732;1269;142185;-60
2022/03/27 17:36:05;;;;;;;17.00;8.20;;;;;;;6.50;33.61;100605.61;447825;1268;141740;-61
2022/03/27 17:46:11;;;;;;;19.50;13.70;;;;;;;6.12;34.41;100595.45;446854;1268;141406;-61
2022/03/27 17:56:18;;;;;;;31.20;20.20;;;;;;;5.85;34.66;100604.70;441061;1270;145547;-58
2022/03/27 18:06:24;;;;;;;42.00;25.10;;;;;;;5.60;35.23;100604.33;440039;1269;142488;-60
2022/03/27 18:16:30;;;;;;;41.40;27.10;;;;;;;5.37;35.99;100609.27;447504;1269;145915;-61
2022/03/27 18:26:36;;;;;;;81.70;45.60;;;;;;;5.15;36.71;100602.03;433956;1270;142379;-64
2022/03/27 18:36:42;;;;;;;78.40;44.00;;;;;;;4.84;37.43;100596.52;430242;1270;142916;-64
2022/03/27 18:46:48;;;;;;;88.40;49.20;;;;;;;4.43;38.34;100586.54;430306;1270;141259;-63
2022/03/27 18:56:55;;;;;;;78.70;44.00;;;;;;;4.04;39.42;100583.73;447482;1270;141343;-60
2022/03/27 19:07:00;;;;;;;89.30;48.50;;;;;;;3.70;40.54;100578.52;440564;1270;142270;-59
2022/03/27 19:17:44;;;;;;;64.30;35.10;;;;;;;3.41;41.18;100589.98;437288;1269;142217;-60
2022/03/27 19:27:50;;;;;;;62.20;33.00;;;;;;;3.18;41.94;100584.86;435839;1269;142561;-59
2022/03/27 19:37:57;;;;;;;63.60;33.90;;;;;;;2.98;42.25;100585.52;438848;1269;144907;-61
2022/03/27 19:48:03;;;;;;;69.50;37.30;;;;;;;2.80;43.31;100593.77;435451;1270;142162;-58
2022/03/27 19:58:09;;;;;;;66.60;35.00;;;;;;;2.62;43.54;100595.60;446785;1269;142667;-57
2022/03/27 20:08:15;;;;;;;63.00;33.20;;;;;;;2.52;44.23;100586.94;444309;1270;142570;-58
2022/03/27 20:18:21;;;;;;;68.50;36.80;;;;;;;2.57;44.81;100584.77;430051;1271;163050;-58
2022/03/27 20:28:27;;;;;;;65.90;35.60;;;;;;;2.59;44.89;100576.97;447405;1270;142569;-58
2022/03/27 20:38:33;;;;;;;64.10;35.60;;;;;;;2.44;45.13;100571.14;440046;1270;197796;-58
2022/03/27 20:48:39;;;;;;;60.90;34.30;;;;;;;2.20;45.62;100558.18;446642;1269;144801;-58
2022/03/27 20:58:45;;;;;;;66.80;35.90;;;;;;;1.98;45.68;100551.21;437459;1271;142018;-59
2022/03/27 21:08:51;;;;;;;72.50;39.10;;;;;;;1.78;46.52;100553.71;447717;1269;142098;-59
2022/03/27 21:18:57;;;;;;;70.60;36.90;;;;;;;1.61;47.06;100539.40;446977;1270;142523;-58
2022/03/27 21:29:03;;;;;;;73.70;37.60;;;;;;;1.46;47.45;100530.95;447599;1269;142481;-59
2022/03/27 21:39:09;;;;;;;65.70;34.60;;;;;;;1.34;47.65;100519.68;442737;1270;142080;-58
2022/03/27 21:49:15;;;;;;;70.10;34.50;;;;;;;1.26;47.44;100504.94;441657;1269;142090;-58
2022/03/27 21:59:21;;;;;;;67.60;37.80;;;;;;;1.17;48.19;100483.13;445205;1270;141127;-58
2022/03/27 22:09:27;;;;;;;71.90;37.20;;;;;;;0.99;48.53;100477.96;446943;1269;142458;-58
2022/03/27 22:19:33;;;;;;;82.40;36.10;;;;;;;0.85;48.93;100475.70;441250;1270;141667;-58
2022/03/27 22:29:38;;;;;;;66.20;33.20;;;;;;;0.72;49.49;100467.89;447739;1269;142589;-58
2022/03/27 22:39:44;;;;;;;45.00;25.70;;;;;;;0.62;49.75;100457.48;445613;1270;142914;-57
2022/03/27 22:49:50;;;;;;;51.30;27.10;;;;;;;0.54;50.20;100445.83;441979;1270;140941;-59
2022/03/27 22:59:56;;;;;;;61.20;29.00;;;;;;;0.44;50.31;100435.40;436069;1269;143064;-63
2022/03/27 23:10:03;;;;;;;46.70;25.80;;;;;;;0.30;50.60;100425.18;446932;1269;142698;-61
2022/03/27 23:20:11;;;;;;;50.10;27.40;;;;;;;0.20;51.07;100410.96;447420;1269;141535;-61
2022/03/27 23:30:17;;;;;;;48.00;27.40;;;;;;;0.10;51.25;100406.23;447123;1270;141512;-60
2022/03/27 23:40:23;;;;;;;43.10;22.80;;;;;;;0.05;51.71;100395.92;447597;1270;141337;-61
2022/03/27 23:50:29;;;;;;;35.30;18.50;;;;;;;0.00;51.60;100383.39;447585;1269;141825;-60
